createdAt,value
2022-12-25T13:52:30.419Z,989.57
2022-12-25T13:53:30.461Z,989.54
2022-12-25T13:54:30.405Z,989.58
2022-12-25T13:55:30.343Z,989.59
2022-12-25T13:56:30.305Z,989.59
2022-12-25T13:57:30.294Z,989.57
2022-12-25T13:58:30.366Z,989.63
2022-12-25T13:59:30.274Z,989.63
2022-12-25T14:00:30.301Z,989.64
2022-12-25T14:01:30.449Z,989.66
2022-12-25T14:02:30.422Z,989.57
2022-12-25T14:03:30.331Z,989.56
2022-12-25T14:04:30.242Z,989.43
2022-12-25T14:05:33.419Z,989.49
2022-12-25T14:06:31.299Z,989.40
2022-12-25T14:07:30.236Z,989.40
2022-12-25T14:08:30.271Z,989.38
2022-12-25T14:09:30.209Z,989.44
2022-12-25T14:10:30.194Z,989.41
2022-12-25T14:11:30.192Z,989.40
2022-12-25T14:12:30.202Z,989.33
2022-12-25T14:13:30.212Z,989.37
2022-12-25T14:14:30.154Z,989.29
2022-12-25T14:15:30.232Z,989.18
2022-12-25T14:16:30.241Z,989.27
2022-12-25T14:17:30.157Z,989.24
2022-12-25T14:18:30.137Z,989.26
2022-12-25T14:19:30.162Z,989.28
2022-12-25T14:20:30.139Z,989.26
2022-12-25T14:21:30.116Z,989.28
2022-12-25T14:22:30.133Z,989.26
2022-12-25T14:23:30.131Z,989.19
2022-12-25T14:24:30.133Z,989.16
2022-12-25T14:25:31.083Z,989.14
2022-12-25T14:26:30.140Z,989.08
2022-12-25T14:27:30.090Z,989.07
2022-12-25T14:28:30.129Z,989.07
2022-12-25T14:29:30.067Z,989.05
2022-12-25T14:30:30.149Z,989.12
2022-12-25T14:31:30.138Z,989.12
2022-12-25T14:32:30.106Z,989.09
2022-12-25T14:33:30.126Z,988.96
2022-12-25T14:34:30.066Z,988.95
2022-12-25T14:35:29.999Z,989.03
2022-12-25T14:36:30.060Z,989.05
2022-12-25T14:37:29.983Z,989.01
2022-12-25T14:38:30.037Z,989.04
2022-12-25T14:39:29.997Z,989.04
2022-12-25T14:40:30.003Z,989.06
2022-12-25T14:41:30.007Z,989.08
2022-12-25T14:42:29.938Z,989.06
2022-12-25T14:43:29.973Z,989.17
2022-12-25T14:44:29.994Z,989.19
2022-12-25T14:45:29.958Z,989.15
2022-12-25T14:46:30.020Z,989.12
2022-12-25T14:47:29.917Z,989.17
2022-12-25T14:48:29.929Z,989.17
2022-12-25T14:49:29.955Z,989.19
2022-12-25T14:50:29.920Z,989.15
2022-12-25T14:51:29.927Z,989.12
2022-12-25T14:52:29.974Z,989.05
2022-12-25T14:53:29.910Z,989.05
2022-12-25T14:54:29.928Z,989.10
2022-12-25T14:55:29.900Z,989.12
2022-12-25T14:56:29.838Z,989.10
2022-12-25T14:57:29.900Z,989.12
2022-12-25T14:58:29.855Z,989.09
2022-12-25T14:59:29.858Z,989.11
2022-12-25T15:00:29.837Z,989.10
2022-12-25T15:01:29.976Z,989.05
2022-12-25T15:02:30.032Z,989.00
2022-12-25T15:03:29.889Z,989.02
2022-12-25T15:04:30.708Z,989.04
2022-12-25T15:05:30.008Z,989.13
2022-12-25T15:06:29.846Z,989.11
2022-12-25T15:07:29.813Z,989.12
2022-12-25T15:08:29.817Z,989.17
2022-12-25T15:09:29.938Z,989.18
2022-12-25T15:10:58.970Z,989.15
2022-12-25T15:11:31.752Z,989.16
2022-12-25T15:12:29.779Z,989.18
2022-12-25T15:13:29.739Z,989.13
2022-12-25T15:14:29.852Z,989.14
2022-12-25T15:15:29.859Z,989.08
2022-12-25T15:16:29.850Z,989.01
2022-12-25T15:17:29.770Z,989.06
2022-12-25T15:18:29.711Z,989.02
2022-12-25T15:19:36.561Z,989.03
2022-12-25T15:20:31.768Z,989.02
2022-12-25T15:21:29.743Z,989.01
2022-12-25T15:22:47.768Z,989.00
2022-12-25T15:23:31.675Z,988.98
2022-12-25T15:24:29.668Z,988.99
2022-12-25T15:25:29.675Z,989.04
2022-12-25T15:26:29.737Z,989.03
2022-12-25T15:27:29.649Z,989.02
2022-12-25T15:28:29.686Z,989.00
2022-12-25T15:30:07.755Z,989.02
2022-12-25T15:30:31.678Z,989.04
2022-12-25T15:31:29.696Z,989.05
2022-12-25T15:32:29.608Z,988.95
2022-12-25T15:33:29.654Z,989.00
2022-12-25T15:34:29.609Z,988.96
2022-12-25T15:35:29.629Z,989.00
2022-12-25T15:36:29.571Z,988.97
2022-12-25T15:37:29.637Z,989.04
2022-12-25T15:38:29.588Z,989.04
2022-12-25T15:39:29.619Z,989.09
2022-12-25T15:40:29.532Z,989.07
2022-12-25T15:41:29.603Z,989.04
2022-12-25T15:42:29.548Z,989.08
2022-12-25T15:43:44.392Z,989.01
2022-12-25T15:44:31.561Z,989.02
2022-12-25T15:45:29.503Z,989.02
2022-12-25T15:46:29.556Z,989.05
2022-12-25T15:47:30.520Z,989.08
2022-12-25T15:48:29.566Z,989.10
2022-12-25T15:49:29.518Z,989.12
2022-12-25T15:50:29.518Z,989.14
2022-12-25T15:51:29.508Z,989.18
2022-12-25T15:52:29.516Z,989.16
2022-12-25T15:53:29.479Z,989.10
2022-12-25T15:54:29.502Z,989.12
2022-12-25T15:55:29.496Z,989.21
2022-12-25T15:56:29.463Z,989.21
2022-12-25T15:57:29.472Z,989.23
2022-12-25T15:58:29.459Z,989.17
2022-12-25T15:59:29.447Z,989.23
2022-12-25T16:00:29.393Z,989.23
2022-12-25T16:01:29.537Z,989.25
2022-12-25T16:02:29.568Z,989.20
2022-12-25T16:03:30.067Z,989.22
2022-12-25T16:04:29.443Z,989.24
2022-12-25T16:05:29.456Z,989.24
2022-12-25T16:06:29.418Z,989.23
2022-12-25T16:07:29.369Z,989.22
2022-12-25T16:08:29.423Z,989.12
2022-12-25T16:09:29.338Z,989.04
2022-12-25T16:10:34.889Z,989.10
2022-12-25T16:11:31.390Z,989.08
2022-12-25T16:12:29.349Z,989.04
2022-12-25T16:13:29.515Z,989.06
2022-12-25T16:14:29.343Z,989.03
2022-12-25T16:15:29.352Z,989.01
2022-12-25T16:16:29.413Z,989.03
2022-12-25T16:17:29.324Z,989.03
2022-12-25T16:18:29.383Z,988.94
2022-12-25T16:19:29.339Z,988.98
2022-12-25T16:20:29.446Z,988.94
2022-12-25T16:21:29.282Z,988.90
2022-12-25T16:22:29.263Z,988.90
2022-12-25T16:23:29.266Z,988.90
2022-12-25T16:24:29.335Z,988.88
2022-12-25T16:25:29.288Z,988.88
2022-12-25T16:26:29.262Z,988.94
2022-12-25T16:27:29.265Z,988.99
2022-12-25T16:28:29.223Z,989.01
2022-12-25T16:29:29.264Z,988.92
2022-12-25T16:30:29.259Z,988.99
2022-12-25T16:31:29.298Z,988.91
2022-12-25T16:32:29.226Z,988.91
2022-12-25T16:33:29.292Z,988.95
2022-12-25T16:34:29.174Z,988.89
2022-12-25T16:35:29.230Z,988.91
2022-12-25T16:36:29.173Z,988.94
2022-12-25T16:37:30.005Z,988.90
2022-12-25T16:38:29.185Z,988.83
2022-12-25T16:39:29.178Z,988.85
2022-12-25T16:40:29.191Z,988.82
2022-12-25T16:41:29.133Z,988.84
2022-12-25T16:42:29.142Z,988.79
2022-12-25T16:43:29.174Z,988.76
2022-12-25T16:44:29.145Z,988.81
2022-12-25T16:45:29.100Z,988.74
2022-12-25T16:46:29.208Z,988.77
2022-12-25T16:47:29.094Z,988.83
2022-12-25T16:48:29.117Z,988.74
2022-12-25T16:49:29.096Z,988.63
2022-12-25T16:50:29.095Z,988.62
2022-12-25T16:51:29.073Z,988.71
2022-12-25T16:52:29.055Z,988.73
2022-12-25T16:53:29.046Z,988.75
2022-12-25T16:54:29.070Z,988.74
2022-12-25T16:55:30.400Z,988.68
2022-12-25T16:56:30.050Z,988.62
2022-12-25T16:57:29.045Z,988.64
2022-12-25T16:58:29.073Z,988.66
2022-12-25T16:59:29.073Z,988.68
2022-12-25T17:00:29.030Z,988.68
2022-12-25T17:01:29.134Z,988.64
2022-12-25T17:02:29.209Z,988.74
2022-12-25T17:03:29.075Z,988.74
2022-12-25T17:04:29.002Z,988.79
2022-12-25T17:05:28.955Z,988.79
2022-12-25T17:06:29.008Z,988.78
2022-12-25T17:07:28.948Z,988.79
2022-12-25T17:08:28.958Z,988.75
2022-12-25T17:09:28.932Z,988.77
2022-12-25T17:10:29.006Z,988.76
2022-12-25T17:11:28.921Z,988.71
2022-12-25T17:12:28.979Z,988.75
2022-12-25T17:13:28.890Z,988.71
2022-12-25T17:14:28.952Z,988.68
2022-12-25T17:15:28.889Z,988.67
2022-12-25T17:16:29.011Z,988.68
2022-12-25T17:17:28.958Z,988.66
2022-12-25T17:18:28.877Z,988.71
2022-12-25T17:19:28.899Z,988.71
2022-12-25T17:20:28.942Z,988.75
2022-12-25T17:21:28.921Z,988.76
2022-12-25T17:22:28.844Z,988.68
2022-12-25T17:23:28.829Z,988.71
2022-12-25T17:24:28.942Z,988.72
2022-12-25T17:25:28.854Z,988.73
2022-12-25T17:26:28.865Z,988.67
2022-12-25T17:27:28.838Z,988.67
2022-12-25T17:28:28.824Z,988.66
2022-12-25T17:29:28.794Z,988.70
2022-12-25T17:30:28.830Z,988.65
2022-12-25T17:31:28.870Z,988.70
2022-12-25T17:32:28.777Z,988.70
2022-12-25T17:33:28.796Z,988.71
2022-12-25T17:34:28.821Z,988.69
2022-12-25T17:35:28.767Z,988.76
2022-12-25T17:36:28.857Z,988.71
2022-12-25T17:37:28.739Z,988.68
2022-12-25T17:38:28.747Z,988.67
2022-12-25T17:39:28.720Z,988.64
2022-12-25T17:40:28.722Z,988.60
2022-12-25T17:41:28.799Z,988.64
2022-12-25T17:42:28.678Z,988.67
2022-12-25T17:43:28.760Z,988.71
2022-12-25T17:44:28.754Z,988.73
2022-12-25T17:45:28.741Z,988.69
2022-12-25T17:46:28.899Z,988.75
2022-12-25T17:47:28.669Z,988.69
2022-12-25T17:48:28.687Z,988.67
2022-12-25T17:49:28.692Z,988.71
2022-12-25T17:50:28.674Z,988.74
2022-12-25T17:51:28.670Z,988.73
2022-12-25T17:52:28.685Z,988.73
2022-12-25T17:53:28.661Z,988.73
2022-12-25T17:54:28.597Z,988.76
2022-12-25T17:55:28.618Z,988.68
2022-12-25T17:56:28.629Z,988.68
2022-12-25T17:57:28.614Z,988.70
2022-12-25T17:58:28.648Z,988.64
2022-12-25T17:59:28.627Z,988.65
2022-12-25T18:00:29.371Z,988.67
2022-12-25T18:01:28.851Z,988.72
2022-12-25T18:02:28.820Z,988.67
2022-12-25T18:03:28.738Z,988.59
2022-12-25T18:04:28.617Z,988.67
2022-12-25T18:05:28.609Z,988.67
2022-12-25T18:06:28.558Z,988.66
2022-12-25T18:07:28.568Z,988.74
2022-12-25T18:08:32.465Z,988.65
2022-12-25T18:09:29.651Z,988.67
2022-12-25T18:10:28.563Z,988.71
2022-12-25T18:11:28.545Z,988.62
2022-12-25T18:12:28.542Z,988.65
2022-12-25T18:13:28.524Z,988.62
2022-12-25T18:14:28.504Z,988.57
2022-12-25T18:15:28.535Z,988.50
2022-12-25T18:16:28.536Z,988.53
2022-12-25T18:17:28.514Z,988.55
2022-12-25T18:18:28.498Z,988.62
2022-12-25T18:19:28.479Z,988.66
